Time;durP1;ratioP1;P1;durP2;ratioP2;P2;SDS_P1;SDS_P2;PMS_P1;PMS_P2;Temp;Humidity;BMP_temperature;BMP_pressure;BME280_temperature;BME280_humidity;BME280_pressure;Samples;Min_cycle;Max_cycle;Signal;HPM_P1;HPM_P2
2021/07/04 00:02:09;;;;;;;8.55;6.88;;;18.90;99.90;;;;;;5040409;28;20454;-71
2021/07/04 00:04:35;;;;;;;8.35;6.80;;;18.90;99.90;;;;;;5039419;28;20051;-71
2021/07/04 00:07:01;;;;;;;9.13;6.85;;;18.80;99.90;;;;;;5039068;28;20021;-71
2021/07/04 00:09:29;;;;;;;8.70;6.50;;;18.80;99.90;;;;;;5024097;28;20025;-71
2021/07/04 00:11:57;;;;;;;8.55;6.25;;;18.80;99.90;;;;;;5041244;28;20470;-71
2021/07/04 00:14:24;;;;;;;9.00;7.70;;;18.80;99.90;;;;;;4341180;28;10000767;-71
2021/07/04 00:16:50;;;;;;;8.95;6.45;;;18.80;99.90;;;;;;5043280;28;20091;-77
2021/07/04 00:19:18;;;;;;;8.70;6.60;;;18.80;99.90;;;;;;5040556;28;20616;-77
2021/07/04 00:21:46;;;;;;;8.65;6.95;;;18.80;99.90;;;;;;5042685;28;20484;-77
2021/07/04 00:24:12;;;;;;;9.27;7.20;;;18.80;99.90;;;;;;5024598;28;20033;-78
2021/07/04 00:26:39;;;;;;;9.45;7.15;;;18.80;99.90;;;;;;5043054;28;20082;-77
2021/07/04 00:29:08;;;;;;;8.57;6.70;;;18.80;99.90;;;;;;5039007;28;20021;-78
2021/07/04 00:31:36;;;;;;;9.90;7.32;;;18.80;99.90;;;;;;5038357;28;20409;-78
2021/07/04 00:34:03;;;;;;;8.45;7.35;;;18.80;99.90;;;;;;5038976;28;21761;-74
2021/07/04 00:36:31;;;;;;;8.75;7.50;;;18.70;99.90;;;;;;5041058;28;20046;-77
2021/07/04 00:38:59;;;;;;;8.73;7.75;;;18.70;99.90;;;;;;5042291;28;20060;-77
2021/07/04 00:41:27;;;;;;;9.30;7.05;;;18.70;99.90;;;;;;5038835;28;20025;-77
2021/07/04 00:43:53;;;;;;;8.85;6.90;;;18.70;99.90;;;;;;5039896;28;20040;-77
2021/07/04 00:46:18;;;;;;;9.70;7.38;;;18.80;99.90;;;;;;5042824;28;20029;-77
2021/07/04 00:48:44;;;;;;;8.50;7.57;;;18.70;99.90;;;;;;5041779;28;20040;-77
2021/07/04 00:51:12;;;;;;;11.13;7.40;;;18.70;99.90;;;;;;5026355;28;20032;-77
2021/07/04 00:53:38;;;;;;;10.02;7.15;;;18.70;99.90;;;;;;5039872;28;20367;-77
2021/07/04 00:56:04;;;;;;;9.57;7.53;;;18.70;99.90;;;;;;5040026;28;20044;-77
2021/07/04 00:58:31;;;;;;;9.23;7.00;;;18.60;99.90;;;;;;5040881;28;20032;-77
2021/07/04 01:00:57;;;;;;;9.35;7.38;;;18.60;99.90;;;;;;5036189;28;20111;-78
2021/07/04 01:03:22;;;;;;;9.07;7.10;;;18.60;99.90;;;;;;5042222;28;20108;-77
2021/07/04 01:05:48;;;;;;;9.13;7.32;;;18.50;99.90;;;;;;5044349;28;20034;-77
2021/07/04 01:08:16;;;;;;;9.32;7.03;;;18.50;99.90;;;;;;5042123;28;20021;-77
2021/07/04 01:10:42;;;;;;;9.30;7.30;;;18.50;99.90;;;;;;5023185;28;20020;-77
2021/07/04 01:13:08;;;;;;;8.70;7.28;;;18.50;99.90;;;;;;5039749;28;20439;-77
2021/07/04 01:15:34;;;;;;;9.50;7.05;;;18.50;99.90;;;;;;5038982;28;20037;-77
2021/07/04 01:18:02;;;;;;;8.65;7.03;;;18.50;99.90;;;;;;5041362;28;20031;-77
2021/07/04 01:20:29;;;;;;;8.50;7.03;;;18.50;99.90;;;;;;5040728;28;20029;-77
2021/07/04 01:22:57;;;;;;;7.82;6.80;;;18.50;99.90;;;;;;5042108;28;20048;-77
2021/07/04 01:25:25;;;;;;;11.10;7.50;;;18.50;99.90;;;;;;5028412;28;20156;-77
2021/07/04 01:27:56;;;;;;;8.65;6.57;;;18.50;99.90;;;;;;5042179;28;20425;-76
2021/07/04 01:30:22;;;;;;;9.93;6.70;;;18.50;99.90;;;;;;5032677;28;20112;-77
2021/07/04 01:32:52;;;;;;;9.60;7.22;;;18.50;99.90;;;;;;5041785;28;20029;-74
2021/07/04 01:35:18;;;;;;;11.60;8.52;;;18.50;99.90;;;;;;5039099;28;20568;-74
2021/07/04 01:37:49;;;;;;;11.60;7.95;;;18.50;99.90;;;;;;5033118;28;20029;-77
2021/07/04 01:40:16;;;;;;;9.38;7.00;;;18.40;99.90;;;;;;5036753;28;20037;-76
2021/07/04 01:42:43;;;;;;;9.18;7.47;;;18.40;99.90;;;;;;5041110;28;20035;-76
2021/07/04 01:45:14;;;;;;;10.15;7.88;;;18.40;99.90;;;;;;5024485;28;20477;-76
2021/07/04 01:47:40;;;;;;;9.48;7.25;;;18.40;99.90;;;;;;5024282;28;20021;-78
2021/07/04 01:50:09;;;;;;;9.07;7.15;;;18.40;99.90;;;;;;5033546;28;20094;-77
2021/07/04 01:52:35;;;;;;;10.57;7.40;;;18.30;99.90;;;;;;5057007;28;20033;-77
2021/07/04 01:55:02;;;;;;;8.25;7.00;;;18.30;99.90;;;;;;5033170;28;20029;-77
2021/07/04 01:57:30;;;;;;;9.82;7.40;;;18.20;99.90;;;;;;5019379;28;20036;-76
2021/07/04 02:00:00;;;;;;;9.18;7.60;;;18.20;99.90;;;;;;5040035;28;21804;-77
2021/07/04 02:02:25;;;;;;;8.93;7.70;;;18.20;99.90;;;;;;5034045;28;20037;-77
2021/07/04 02:04:51;;;;;;;9.93;7.70;;;18.20;99.90;;;;;;5039945;28;20033;-77
2021/07/04 02:07:19;;;;;;;9.75;7.55;;;18.10;99.90;;;;;;5039089;28;20037;-77
2021/07/04 02:09:48;;;;;;;8.90;7.55;;;18.10;99.90;;;;;;5026215;28;20040;-77
2021/07/04 02:12:14;;;;;;;10.10;8.00;;;18.10;99.90;;;;;;5009346;28;20109;-77
2021/07/04 02:14:40;;;;;;;9.43;7.45;;;18.10;99.90;;;;;;5004487;28;20410;-77
2021/07/04 02:17:06;;;;;;;9.43;8.02;;;18.00;99.90;;;;;;5037202;28;20041;-77
2021/07/04 02:19:40;;;;;;;11.63;8.48;;;18.00;99.90;;;;;;5034232;28;20043;-76
2021/07/04 02:22:06;;;;;;;9.27;8.13;;;18.00;99.90;;;;;;5020888;28;20029;-76
2021/07/04 02:24:34;;;;;;;10.38;7.45;;;18.00;99.90;;;;;;5034900;28;20092;-76
2021/07/04 02:27:02;;;;;;;10.23;7.97;;;18.00;99.90;;;;;;5035335;28;20029;-78
2021/07/04 02:29:30;;;;;;;11.20;8.00;;;18.00;99.90;;;;;;5035208;28;20588;-75
2021/07/04 02:31:58;;;;;;;12.00;7.88;;;18.00;99.90;;;;;;5053606;28;20465;-75
2021/07/04 02:34:27;;;;;;;9.18;7.63;;;18.00;99.90;;;;;;5038207;28;20087;-77
2021/07/04 02:36:53;;;;;;;9.70;7.57;;;18.00;99.90;;;;;;5039548;28;20032;-77
2021/07/04 02:39:18;;;;;;;10.10;7.72;;;18.00;99.90;;;;;;5039512;28;20047;-77
2021/07/04 02:41:46;;;;;;;8.93;8.02;;;17.90;99.90;;;;;;5038188;28;20033;-77
2021/07/04 02:44:14;;;;;;;8.40;7.43;;;18.00;99.90;;;;;;5039920;28;20171;-77
2021/07/04 02:46:43;;;;;;;10.40;8.10;;;18.00;99.90;;;;;;5034121;28;20029;-77
2021/07/04 02:49:08;;;;;;;9.25;7.03;;;18.00;99.90;;;;;;5023230;28;20039;-77
2021/07/04 02:51:34;;;;;;;9.68;8.00;;;18.00;99.90;;;;;;5038231;28;20029;-76
2021/07/04 02:54:04;;;;;;;9.25;7.47;;;18.00;99.90;;;;;;5038999;28;20211;-77
2021/07/04 02:56:35;;;;;;;9.98;8.00;;;17.90;99.90;;;;;;5037806;28;20446;-77
2021/07/04 02:59:03;;;;;;;9.93;7.85;;;18.00;99.90;;;;;;5037101;28;20029;-76
2021/07/04 03:01:28;;;;;;;10.38;7.57;;;17.90;99.90;;;;;;5035120;28;20033;-77
2021/07/04 03:03:54;;;;;;;9.40;7.97;;;17.90;99.90;;;;;;5037908;28;20060;-77
2021/07/04 03:06:20;;;;;;;11.25;7.90;;;17.80;99.90;;;;;;5023142;28;20178;-77
2021/07/04 03:08:48;;;;;;;10.25;8.07;;;17.80;99.90;;;;;;5035521;28;20029;-77
2021/07/04 03:11:13;;;;;;;10.32;8.90;;;17.80;99.90;;;;;;5037686;28;20032;-78
2021/07/04 03:13:44;;;;;;;10.20;8.30;;;17.80;99.90;;;;;;5035792;28;20028;-77
2021/07/04 03:16:09;;;;;;;9.48;8.38;;;17.80;99.90;;;;;;5036653;28;20079;-77
2021/07/04 03:18:39;;;;;;;10.55;7.93;;;17.80;99.90;;;;;;5036282;28;20502;-77
2021/07/04 03:21:07;;;;;;;9.75;8.50;;;17.70;99.90;;;;;;5037253;28;20070;-77
2021/07/04 03:23:33;;;;;;;10.15;8.43;;;17.70;99.90;;;;;;5037368;28;20070;-77
2021/07/04 03:26:03;;;;;;;11.20;9.20;;;17.70;99.90;;;;;;5036819;28;20045;-77
2021/07/04 03:28:29;;;;;;;11.50;8.93;;;17.70;99.90;;;;;;5033430;28;20144;-75
2021/07/04 03:30:55;;;;;;;12.70;8.57;;;17.70;99.90;;;;;;5036954;28;20093;-77
2021/07/04 03:33:20;;;;;;;11.25;8.10;;;17.70;99.90;;;;;;5036645;28;20075;-77
2021/07/04 03:35:48;;;;;;;10.68;8.18;;;17.70;99.90;;;;;;5036162;28;20025;-77
2021/07/04 03:38:17;;;;;;;11.02;8.23;;;17.70;99.90;;;;;;5022168;28;20037;-76
2021/07/04 03:40:47;;;;;;;9.93;7.88;;;17.70;99.90;;;;;;5035981;28;20107;-76
2021/07/04 03:43:13;;;;;;;10.73;8.27;;;17.70;99.90;;;;;;5035948;28;20033;-76
2021/07/04 03:45:41;;;;;;;11.00;7.72;;;17.70;99.90;;;;;;5037184;28;20037;-77
2021/07/04 03:48:06;;;;;;;9.27;7.70;;;17.70;99.90;;;;;;5036535;28;20030;-77
2021/07/04 03:50:32;;;;;;;10.32;8.43;;;17.70;99.90;;;;;;5032117;28;20040;-76
2021/07/04 03:52:58;;;;;;;10.00;7.93;;;17.70;99.90;;;;;;5037676;28;20114;-77
2021/07/04 03:55:26;;;;;;;9.45;8.00;;;17.70;99.90;;;;;;5032932;28;20033;-77
2021/07/04 03:57:52;;;;;;;10.18;8.43;;;17.70;99.90;;;;;;5033201;28;20159;-76
2021/07/04 04:00:18;;;;;;;9.38;7.95;;;17.70;99.90;;;;;;5037041;28;20159;-77
2021/07/04 04:02:47;;;;;;;11.35;8.95;;;17.70;99.90;;;;;;5034253;28;20154;-76
2021/07/04 04:05:15;;;;;;;10.73;8.65;;;17.70;99.90;;;;;;5032696;28;20025;-77
2021/07/04 04:07:41;;;;;;;10.68;9.10;;;17.70;99.90;;;;;;5036656;28;20619;-77
2021/07/04 04:10:10;;;;;;;10.68;8.40;;;17.60;99.90;;;;;;5032742;28;20029;-77
2021/07/04 04:12:38;;;;;;;10.85;9.05;;;17.60;99.90;;;;;;5016173;28;20094;-77
2021/07/04 04:15:06;;;;;;;9.50;8.35;;;17.70;99.90;;;;;;5035984;28;20033;-77
2021/07/04 04:17:34;;;;;;;10.50;9.10;;;17.60;99.90;;;;;;5037008;28;20025;-76
2021/07/04 04:19:59;;;;;;;10.07;7.95;;;17.60;99.90;;;;;;5035234;28;20033;-77
2021/07/04 04:22:25;;;;;;;11.55;9.38;;;17.70;99.90;;;;;;5036150;28;20425;-77
2021/07/04 04:24:50;;;;;;;13.05;10.60;;;17.60;99.90;;;;;;5035986;28;20037;-76
2021/07/04 04:27:16;;;;;;;10.70;8.10;;;17.70;99.90;;;;;;5035072;28;20067;-76
2021/07/04 04:29:44;;;;;;;11.10;8.55;;;17.70;99.90;;;;;;5031776;28;20454;-76
2021/07/04 04:32:10;;;;;;;12.75;9.95;;;17.70;99.90;;;;;;5035504;28;20021;-77
2021/07/04 04:34:36;;;;;;;11.95;10.63;;;17.70;99.90;;;;;;5036764;28;20086;-76
2021/07/04 04:37:02;;;;;;;10.95;9.23;;;17.80;99.90;;;;;;5035947;28;20060;-77
2021/07/04 04:39:28;;;;;;;11.50;10.30;;;17.80;99.90;;;;;;5034343;28;20071;-76
2021/07/04 04:41:55;;;;;;;11.15;9.13;;;17.80;99.90;;;;;;5035593;28;20116;-77
2021/07/04 04:44:21;;;;;;;11.65;8.93;;;17.90;99.90;;;;;;5036387;28;20118;-77
2021/07/04 04:46:47;;;;;;;11.55;9.27;;;18.00;99.90;;;;;;5033071;28;20029;-76
2021/07/04 04:49:13;;;;;;;10.30;8.75;;;18.00;99.90;;;;;;5034773;28;20111;-77
2021/07/04 04:51:41;;;;;;;9.93;8.88;;;18.10;99.90;;;;;;5035557;28;20029;-77
2021/07/04 04:54:07;;;;;;;10.20;9.10;;;18.10;99.90;;;;;;5030996;28;20048;-76
2021/07/04 04:56:35;;;;;;;10.15;8.75;;;18.10;99.90;;;;;;5030978;28;20048;-76
2021/07/04 04:59:00;;;;;;;11.75;9.52;;;18.10;99.90;;;;;;5032273;28;20738;-77
2021/07/04 05:01:29;;;;;;;10.45;9.15;;;18.20;99.90;;;;;;5035508;28;20037;-77
2021/07/04 05:03:57;;;;;;;10.55;9.13;;;18.20;99.90;;;;;;5035316;28;20707;-77
2021/07/04 05:06:25;;;;;;;10.90;8.25;;;18.20;99.90;;;;;;5035372;28;20032;-77
2021/07/04 05:08:53;;;;;;;10.55;9.05;;;18.20;99.90;;;;;;5040359;28;20025;-76
2021/07/04 05:11:21;;;;;;;11.10;8.73;;;18.20;99.90;;;;;;5035882;28;20732;-76
2021/07/04 05:13:47;;;;;;;10.52;8.40;;;18.30;99.90;;;;;;5039795;28;20051;-77
2021/07/04 05:16:12;;;;;;;12.93;8.45;;;18.30;99.90;;;;;;5036891;28;20041;-76
2021/07/04 05:18:40;;;;;;;10.23;8.40;;;18.40;99.90;;;;;;5037435;28;20048;-76
2021/07/04 05:21:08;;;;;;;12.30;8.75;;;18.40;99.90;;;;;;5040276;28;20028;-76
2021/07/04 05:23:33;;;;;;;10.70;9.13;;;18.50;99.90;;;;;;5037645;28;20029;-76
2021/07/04 05:25:59;;;;;;;12.18;9.80;;;18.50;99.90;;;;;;5035075;28;20102;-76
2021/07/04 05:28:25;;;;;;;10.85;9.15;;;18.60;99.90;;;;;;5039376;28;20025;-76
2021/07/04 05:30:53;;;;;;;11.18;9.77;;;18.60;99.90;;;;;;5025202;28;20057;-76
2021/07/04 05:33:21;;;;;;;12.80;10.23;;;18.60;99.90;;;;;;5024970;28;20403;-77
2021/07/04 05:35:47;;;;;;;12.30;10.55;;;18.70;99.90;;;;;;5035112;28;20900;-76
2021/07/04 05:38:19;;;;;;;13.25;10.68;;;18.70;99.90;;;;;;5039768;28;20032;-77
2021/07/04 05:40:49;;;;;;;12.15;10.40;;;18.80;99.90;;;;;;5038908;28;20036;-76
2021/07/04 05:43:17;;;;;;;11.48;9.82;;;18.80;99.90;;;;;;5037206;28;20033;-76
2021/07/04 05:45:43;;;;;;;11.60;9.95;;;18.80;99.90;;;;;;5038417;28;20036;-76
2021/07/04 05:48:09;;;;;;;11.50;9.77;;;18.90;99.90;;;;;;5038542;28;20034;-76
2021/07/04 05:50:37;;;;;;;12.07;9.65;;;19.00;99.90;;;;;;5018565;28;20020;-76
2021/07/04 05:53:02;;;;;;;12.10;9.18;;;19.00;99.90;;;;;;5039543;28;20035;-76
2021/07/04 05:55:28;;;;;;;11.25;8.70;;;19.00;99.90;;;;;;5037568;28;20032;-76
2021/07/04 05:57:54;;;;;;;11.40;8.50;;;19.10;99.90;;;;;;5025519;28;20046;-77
2021/07/04 06:00:19;;;;;;;10.90;8.52;;;19.10;99.90;;;;;;5039293;28;20033;-76
2021/07/04 06:02:50;;;;;;;11.50;8.90;;;19.10;99.90;;;;;;5038249;28;20041;-76
2021/07/04 06:05:17;;;;;;;12.90;8.88;;;19.20;99.90;;;;;;5037529;28;20041;-76
2021/07/04 06:07:45;;;;;;;12.35;8.30;;;19.20;99.90;;;;;;5034770;28;20037;-76
2021/07/04 06:10:12;;;;;;;10.52;9.00;;;19.30;99.90;;;;;;5033880;28;20037;-76
2021/07/04 06:12:37;;;;;;;11.32;8.80;;;19.20;99.90;;;;;;5034643;28;20111;-77
2021/07/04 06:15:04;;;;;;;12.85;9.02;;;19.30;99.90;;;;;;5038211;28;20045;-76
2021/07/04 06:17:34;;;;;;;10.80;9.25;;;19.40;99.90;;;;;;5036553;28;20064;-76
2021/07/04 06:20:00;;;;;;;11.00;8.98;;;19.40;99.90;;;;;;5038839;28;20032;-76
2021/07/04 06:22:26;;;;;;;11.38;8.88;;;19.50;99.90;;;;;;5056817;28;20470;-77
2021/07/04 06:24:51;;;;;;;11.88;9.48;;;19.50;99.90;;;;;;5037601;28;20048;-76
2021/07/04 06:27:17;;;;;;;13.75;11.13;;;19.60;99.90;;;;;;5038759;28;20162;-76
2021/07/04 06:29:43;;;;;;;15.85;14.15;;;19.60;99.90;;;;;;5039353;28;20454;-77
2021/07/04 06:32:11;;;;;;;16.40;14.80;;;19.60;99.90;;;;;;5038071;28;20834;-76
2021/07/04 06:34:36;;;;;;;15.73;13.60;;;19.60;99.90;;;;;;5037895;28;20485;-77
2021/07/04 06:37:04;;;;;;;14.63;12.98;;;19.60;99.90;;;;;;5037683;28;20033;-77
2021/07/04 06:39:30;;;;;;;14.70;13.10;;;19.80;99.90;;;;;;5033096;28;20032;-76
2021/07/04 06:41:58;;;;;;;17.63;13.45;;;19.80;99.90;;;;;;5037600;28;20047;-77
2021/07/04 06:44:23;;;;;;;13.63;12.20;;;20.00;99.90;;;;;;5039027;28;20041;-76
2021/07/04 06:46:49;;;;;;;13.32;11.90;;;20.10;99.90;;;;;;5037876;28;20067;-77
2021/07/04 06:49:17;;;;;;;12.63;11.32;;;20.10;99.90;;;;;;5038013;28;20037;-76
2021/07/04 06:51:45;;;;;;;12.95;10.77;;;20.20;99.90;;;;;;5035345;28;20025;-77
2021/07/04 06:54:10;;;;;;;12.63;11.13;;;20.30;99.90;;;;;;5039344;28;20033;-77
2021/07/04 06:56:36;;;;;;;12.70;10.93;;;20.40;99.90;;;;;;5037345;28;20033;-76
2021/07/04 06:59:02;;;;;;;12.60;10.25;;;20.50;99.90;;;;;;5036931;28;20033;-77
2021/07/04 07:01:27;;;;;;;11.60;9.90;;;20.60;99.90;;;;;;5036694;28;20059;-77
2021/07/04 07:03:53;;;;;;;11.48;9.95;;;20.70;99.90;;;;;;5039014;28;20078;-77
2021/07/04 07:06:20;;;;;;;11.70;10.02;;;20.80;99.90;;;;;;5037733;28;20036;-76
2021/07/04 07:08:47;;;;;;;12.75;10.32;;;20.90;99.90;;;;;;5023023;28;20520;-77
2021/07/04 07:11:13;;;;;;;12.25;9.93;;;20.90;99.90;;;;;;5037783;28;20465;-76
2021/07/04 07:13:43;;;;;;;12.10;9.50;;;20.80;99.90;;;;;;5038251;28;20454;-77
2021/07/04 07:16:11;;;;;;;11.10;9.73;;;20.90;99.90;;;;;;5034683;28;20047;-77
2021/07/04 07:18:37;;;;;;;11.07;8.90;;;21.00;99.90;;;;;;5032943;28;20067;-77
2021/07/04 07:21:03;;;;;;;10.82;9.13;;;21.10;99.90;;;;;;5031841;28;20120;-76
2021/07/04 07:23:29;;;;;;;11.15;9.07;;;21.10;99.90;;;;;;5034246;28;20033;-77
2021/07/04 07:25:57;;;;;;;10.98;9.13;;;21.20;99.90;;;;;;5036764;28;20053;-76
2021/07/04 07:28:25;;;;;;;12.02;9.43;;;21.10;99.90;;;;;;5031706;28;20534;-77
2021/07/04 07:30:51;;;;;;;9.82;8.82;;;21.10;99.90;;;;;;5037103;28;20036;-76
2021/07/04 07:33:18;;;;;;;12.10;9.18;;;21.20;99.90;;;;;;5038426;28;20045;-77
2021/07/04 07:35:44;;;;;;;13.77;9.65;;;21.30;99.90;;;;;;5040018;28;20054;-76
2021/07/04 07:38:12;;;;;;;11.90;10.13;;;21.30;99.90;;;;;;5036624;28;20659;-76
2021/07/04 07:40:38;;;;;;;10.90;9.73;;;21.30;99.90;;;;;;5023343;28;20049;-76
2021/07/04 07:43:04;;;;;;;11.18;9.90;;;21.40;99.90;;;;;;5020184;28;20055;-77
2021/07/04 07:45:29;;;;;;;11.32;9.25;;;21.50;99.90;;;;;;5032843;28;20037;-76
2021/07/04 07:47:57;;;;;;;12.10;10.18;;;21.60;99.90;;;;;;5037343;28;20053;-76
2021/07/04 07:50:26;;;;;;;12.20;10.20;;;21.60;99.90;;;;;;5036977;28;20091;-77
2021/07/04 07:52:52;;;;;;;11.65;9.85;;;21.70;99.90;;;;;;5037784;28;20405;-76
2021/07/04 07:55:20;;;;;;;13.80;10.43;;;21.80;99.90;;;;;;5007074;28;20038;-76
2021/07/04 07:57:48;;;;;;;13.40;10.20;;;21.90;99.90;;;;;;5035877;28;20108;-76
2021/07/04 08:00:14;;;;;;;12.43;9.70;;;22.00;99.90;;;;;;5036506;28;20033;-76
2021/07/04 08:02:43;;;;;;;12.65;9.88;;;22.10;99.90;;;;;;5036368;28;20029;-76
2021/07/04 08:05:09;;;;;;;11.05;9.90;;;22.20;99.90;;;;;;5034999;28;20618;-76
2021/07/04 08:07:36;;;;;;;12.70;10.20;;;22.30;99.90;;;;;;5035458;28;20024;-76
2021/07/04 08:10:04;;;;;;;12.95;10.13;;;22.40;99.90;;;;;;5035946;28;20074;-77
2021/07/04 08:12:29;;;;;;;11.07;9.98;;;22.40;99.90;;;;;;5036463;28;20034;-76
2021/07/04 08:14:55;;;;;;;11.68;8.82;;;22.40;99.90;;;;;;4687589;28;10000114;-77
2021/07/04 08:17:20;;;;;;;12.38;9.95;;;22.30;99.90;;;;;;5035665;28;20032;-77
2021/07/04 08:19:46;;;;;;;11.10;9.35;;;22.40;99.90;;;;;;5036390;28;20024;-77
2021/07/04 08:22:12;;;;;;;10.95;9.75;;;22.40;99.90;;;;;;5036344;28;21948;-77
2021/07/04 08:24:37;;;;;;;9.80;8.80;;;22.30;99.90;;;;;;5031860;28;20120;-77
2021/07/04 08:27:05;;;;;;;10.07;8.63;;;22.40;99.90;;;;;;5035393;28;20066;-77
2021/07/04 08:29:31;;;;;;;10.43;9.32;;;22.40;99.90;;;;;;5036214;28;20029;-77
2021/07/04 08:32:00;;;;;;;9.75;7.95;;;22.60;99.90;;;;;;5035741;28;20025;-76
2021/07/04 08:34:25;;;;;;;10.15;8.38;;;22.80;99.90;;;;;;5035305;28;20029;-76
2021/07/04 08:36:51;;;;;;;10.60;8.30;;;22.60;99.90;;;;;;5032829;28;20048;-76
2021/07/04 08:39:16;;;;;;;11.95;8.30;;;22.60;99.90;;;;;;5034534;28;20029;-76
2021/07/04 08:41:44;;;;;;;9.13;7.40;;;22.60;99.90;;;;;;5036760;28;20039;-76
2021/07/04 08:44:10;;;;;;;9.93;7.50;;;22.70;99.90;;;;;;5030948;28;20084;-76
2021/07/04 08:46:43;;;;;;;12.48;8.45;;;22.90;99.90;;;;;;5032085;28;20099;-76
2021/07/04 08:49:09;;;;;;;9.40;8.40;;;23.00;99.90;;;;;;5036013;28;20094;-76
2021/07/04 08:51:35;;;;;;;8.63;7.72;;;22.90;99.90;;;;;;5036556;28;20029;-76
2021/07/04 08:54:00;;;;;;;10.00;7.50;;;23.00;99.90;;;;;;5035565;28;20394;-76
2021/07/04 08:56:28;;;;;;;8.77;7.88;;;23.10;99.90;;;;;;5031569;28;20090;-76
2021/07/04 08:58:54;;;;;;;9.93;8.38;;;23.00;99.90;;;;;;5035993;28;20033;-76
2021/07/04 09:01:24;;;;;;;9.50;8.05;;;23.10;99.90;;;;;;5034945;28;20033;-77
2021/07/04 09:03:56;;;;;;;10.60;8.18;;;23.10;99.90;;;;;;5053504;28;20091;-77
2021/07/04 09:06:38;;;;;;;11.40;8.30;;;23.00;99.90;;;;;;5034527;28;20028;-77
2021/07/04 09:09:17;;;;;;;;;;;23.10;99.90;;;;;;5018675;28;20068;-76
2021/07/04 09:11:52;;;;;;;8.77;7.57;;;23.30;99.90;;;;;;5030326;28;19922;-76
2021/07/04 09:14:26;;;;;;;10.07;8.30;;;23.40;99.90;;;;;;5029962;28;20037;-77
2021/07/04 09:16:52;;;;;;;9.40;7.30;;;23.60;99.90;;;;;;5029544;28;20454;-76
2021/07/04 09:19:20;;;;;;;8.95;7.88;;;23.70;99.90;;;;;;5031085;28;20033;-77
2021/07/04 09:22:00;;;;;;;9.57;7.63;;;23.80;99.90;;;;;;5026809;28;20116;-76
2021/07/04 09:24:34;;;;;;;10.40;8.40;;;23.90;99.90;;;;;;5047576;28;20044;-77
2021/07/04 09:27:02;;;;;;;9.45;7.40;;;23.90;99.90;;;;;;5030559;28;20465;-77
2021/07/04 09:29:45;;;;;;;10.20;7.85;;;24.00;99.90;;;;;;5028792;28;20043;-76
2021/07/04 09:32:26;;;;;;;9.27;7.78;;;23.90;99.90;;;;;;5028648;28;20028;-77
2021/07/04 09:34:58;;;;;;;9.40;8.00;;;23.70;99.90;;;;;;5029715;28;20029;-77
2021/07/04 09:37:51;;;;;;;9.18;7.35;;;23.60;98.20;;;;;;5030558;28;20049;-77
2021/07/04 09:40:17;;;;;;;;;;;23.50;97.00;;;;;;5027918;28;20482;-76
2021/07/04 09:42:58;;;;;;;10.48;8.55;;;23.70;99.90;;;;;;5034207;28;20028;-77
2021/07/04 09:45:26;;;;;;;11.70;10.32;;;23.80;99.90;;;;;;5035367;28;20030;-77
2021/07/04 09:47:55;;;;;;;9.93;8.10;;;23.50;94.10;;;;;;5035624;28;20021;-77
2021/07/04 09:50:23;;;;;;;11.02;8.93;;;23.60;99.90;;;;;;5016915;28;20031;-76
2021/07/04 09:53:01;;;;;;;11.38;9.93;;;23.70;99.90;;;;;;5038372;28;20045;-76
2021/07/04 09:55:30;;;;;;;11.23;9.50;;;23.70;99.90;;;;;;5037026;28;20051;-77
2021/07/04 09:58:02;;;;;;;17.25;15.55;;;23.70;99.90;;;;;;5038552;28;20040;-73
2021/07/04 10:00:39;;;;;;;13.80;11.35;;;23.70;99.90;;;;;;5036970;28;20721;-73
2021/07/04 10:03:14;;;;;;;10.48;9.38;;;23.80;99.90;;;;;;5037963;28;20163;-74
2021/07/04 10:05:44;;;;;;;10.05;8.90;;;23.90;99.90;;;;;;5038052;28;20035;-73
2021/07/04 10:08:17;;;;;;;10.75;9.07;;;24.00;99.90;;;;;;5021155;28;20108;-77
2021/07/04 10:10:43;;;;;;;10.93;8.30;;;23.80;96.80;;;;;;5040389;28;20043;-78
2021/07/04 10:13:09;;;;;;;10.15;8.65;;;23.90;99.90;;;;;;5038735;28;20033;-78
2021/07/04 10:15:42;;;;;;;10.90;8.50;;;23.90;99.90;;;;;;5038154;28;20116;-76
2021/07/04 10:18:11;;;;;;;13.00;9.13;;;24.10;99.90;;;;;;5032585;28;20061;-76
2021/07/04 10:20:41;;;;;;;10.23;9.00;;;24.00;93.10;;;;;;5037477;28;20116;-77
2021/07/04 10:23:11;;;;;;;10.10;9.00;;;23.90;97.40;;;;;;5037537;28;20037;-77
2021/07/04 10:25:39;;;;;;;10.55;9.43;;;23.80;97.20;;;;;;5038417;28;20045;-77
2021/07/04 10:28:07;;;;;;;10.85;8.48;;;23.90;97.60;;;;;;5037254;28;20029;-78
2021/07/04 10:30:33;;;;;;;10.18;8.38;;;24.10;99.90;;;;;;5020353;28;20164;-72
2021/07/04 10:33:07;;;;;;;10.77;8.57;;;24.20;99.90;;;;;;5037265;28;20696;-73
2021/07/04 10:35:35;;;;;;;12.38;8.68;;;24.30;99.90;;;;;;5038167;28;20346;-73
2021/07/04 10:38:15;;;;;;;11.57;9.02;;;24.40;99.90;;;;;;5037461;28;20156;-77
2021/07/04 10:40:41;;;;;;;9.40;8.40;;;24.40;99.20;;;;;;5033227;28;20768;-77
2021/07/04 10:43:07;;;;;;;10.57;9.07;;;24.30;99.10;;;;;;5037894;28;20040;-76
2021/07/04 10:45:38;;;;;;;9.85;8.70;;;24.30;94.90;;;;;;5036857;28;20481;-77
2021/07/04 10:48:26;;;;;;;10.77;8.15;;;24.30;98.40;;;;;;5038549;28;20029;-77
2021/07/04 10:51:08;;;;;;;11.07;9.32;;;24.50;99.90;;;;;;5037664;28;20036;-77
2021/07/04 10:53:47;;;;;;;10.93;9.27;;;24.60;97.40;;;;;;5036209;28;20619;-77
2021/07/04 10:56:35;;;;;;;10.80;8.75;;;24.20;91.90;;;;;;5033328;28;20053;-76
2021/07/04 10:59:13;;;;;;;10.15;7.95;;;24.30;99.90;;;;;;5037155;28;20533;-77
2021/07/04 11:01:54;;;;;;;10.32;8.20;;;24.20;93.60;;;;;;5036237;28;20160;-78
2021/07/04 11:04:32;;;;;;;8.70;7.80;;;24.30;94.80;;;;;;5037280;28;20039;-78
2021/07/04 11:06:59;;;;;;;8.90;7.90;;;24.50;99.90;;;;;;5037990;28;20257;-74
2021/07/04 11:09:45;;;;;;;10.60;8.88;;;24.40;93.80;;;;;;5037123;28;20025;-72
2021/07/04 11:12:26;;;;;;;9.10;8.18;;;24.50;94.20;;;;;;5037203;28;20055;-77
2021/07/04 11:15:13;;;;;;;13.07;8.88;;;24.40;90.70;;;;;;5033617;28;20112;-77
2021/07/04 11:17:57;;;;;;;10.52;8.38;;;24.60;93.20;;;;;;5036196;28;20548;-77
2021/07/04 11:20:29;;;;;;;8.50;7.60;;;24.40;86.30;;;;;;5036276;28;20049;-78
2021/07/04 11:23:13;;;;;;;9.50;8.50;;;24.30;88.60;;;;;;5033299;28;20124;-75
2021/07/04 11:26:06;;;;;;;10.65;9.00;;;24.50;98.10;;;;;;5036405;28;20049;-73
2021/07/04 11:28:33;;;;;;;10.63;8.93;;;24.40;90.10;;;;;;5054232;28;20025;-73
2021/07/04 11:30:59;;;;;;;9.75;7.93;;;24.50;91.60;;;;;;5052084;28;20029;-76
2021/07/04 11:33:47;;;;;;;8.38;7.40;;;24.50;93.10;;;;;;5036255;28;20450;-77
2021/07/04 11:36:16;;;;;;;8.60;7.20;;;24.50;97.70;;;;;;5038188;28;20037;-75
2021/07/04 11:38:46;;;;;;;10.90;7.32;;;24.60;93.40;;;;;;5036394;28;20036;-76
2021/07/04 11:41:19;;;;;;;9.23;7.40;;;24.80;98.90;;;;;;5023540;28;20095;-76
2021/07/04 11:43:45;;;;;;;10.70;7.80;;;24.60;93.50;;;;;;5035882;28;20051;-77
2021/07/04 11:46:14;;;;;;;9.10;7.32;;;24.60;93.20;;;;;;5035351;28;20052;-78
2021/07/04 11:49:03;;;;;;;9.35;7.50;;;24.30;93.00;;;;;;5034710;28;20032;-76
2021/07/04 11:51:51;;;;;;;8.77;7.28;;;24.30;94.10;;;;;;5036570;28;20029;-79
2021/07/04 11:54:21;;;;;;;9.73;7.15;;;24.10;94.90;;;;;;5032173;28;20067;-78
2021/07/04 11:56:50;;;;;;;8.43;7.28;;;23.70;92.80;;;;;;5031570;28;20074;-80
2021/07/04 11:59:23;;;;;;;10.48;7.25;;;23.80;97.40;;;;;;5035458;28;20037;-77
2021/07/04 12:01:52;;;;;;;9.32;7.28;;;24.00;99.90;;;;;;5036855;28;20571;-77
2021/07/04 12:04:29;;;;;;;8.93;7.40;;;24.10;99.90;;;;;;5032737;28;20029;-79
2021/07/04 12:06:57;;;;;;;8.02;7.20;;;24.20;97.70;;;;;;5035504;28;20032;-77
2021/07/04 12:09:41;;;;;;;10.82;7.22;;;24.30;97.60;;;;;;5036149;28;20032;-77
2021/07/04 12:12:30;;;;;;;8.43;6.47;;;24.30;94.80;;;;;;5038862;28;20771;-79
2021/07/04 12:15:00;;;;;;;8.30;6.43;;;23.80;84.70;;;;;;5035566;28;20025;-80
2021/07/04 12:17:26;;;;;;;7.15;5.57;;;23.80;91.40;;;;;;5036512;28;20143;-78
2021/07/04 12:20:10;;;;;;;6.63;5.90;;;23.40;82.20;;;;;;5038023;28;20140;-76
2021/07/04 12:22:48;;;;;;;6.40;5.40;;;23.50;84.40;;;;;;5034910;28;20044;-78
2021/07/04 12:25:21;;;;;;;7.05;5.65;;;23.40;84.70;;;;;;5035470;28;20049;-79
2021/07/04 12:27:48;;;;;;;7.47;5.13;;;23.30;89.20;;;;;;5020666;28;20037;-77
2021/07/04 12:30:24;;;;;;;6.68;5.35;;;23.30;86.30;;;;;;5034499;28;20036;-76
2021/07/04 12:33:00;;;;;;;6.57;4.60;;;23.40;90.90;;;;;;5032793;28;20029;-74
2021/07/04 12:35:32;;;;;;;6.13;4.80;;;23.20;84.60;;;;;;5031757;28;20044;-76
2021/07/04 12:38:04;;;;;;;10.43;4.97;;;23.00;90.30;;;;;;5034572;28;20527;-73
2021/07/04 12:40:35;;;;;;;6.82;4.60;;;22.80;84.00;;;;;;5031387;28;20393;-82
2021/07/04 12:43:11;;;;;;;5.53;4.23;;;22.80;84.80;;;;;;5016394;28;20029;-78
2021/07/04 12:45:44;;;;;;;6.45;4.72;;;22.70;83.50;;;;;;5033882;28;20052;-83
2021/07/04 12:48:12;;;;;;;6.25;4.60;;;22.80;92.40;;;;;;5022139;28;20606;-84
2021/07/04 12:50:50;;;;;;;5.90;4.55;;;22.90;94.50;;;;;;5035567;28;20103;-77